Abidjan, Ivory Coast

4:31 PM GMT on October 02, 2014 (GMT +0000)
Felix Houphouet-Boigny | Change Station
CLOSE
Current Station
Airport
Location: Abidjan,
Elevation: 26 ft
Nearby Weather Stations

Elev 26 ft 5.26 °N, 3.93 °W | Updated 31 minutes ago

Mostly Cloudy
Mostly Cloudy
79 °F
Feels Like 79 °F
N
13
Wind Variable Wind from SSW

Today
High -- | Low -- °F
--% Chance of Precip.
Yesterday
High -- | Low -- °F
Precip. -- in
6:03 AM 6:06 PM
First Quarter, 60% visible
Pressure 29.86 in
Visibility 6.2 miles
Clouds Scattered Clouds 1000 ft
Mostly Cloudy 2500 ft
Dew Point 73 °F
Humidity 83%
Rainfall 0.00 in
Snow Depth Not available.
UV 2 out of 12
Pollen Not available.
Air Quality Not available.
Flu Activity Not available.
METAR DIAP 021600Z 20011KT 9999 SCT010 BKN025 26/23 Q1011 NOSIG

More Conditions Fewer Conditions

Pressure 29.86 in
Visibility 6.2 miles
Clouds Scattered Clouds 1000 ft
Mostly Cloudy 2500 ft
Dew Point 73 °F
Humidity 83%
Rainfall 0.00 in
Snow Depth Not available.
UV 2 out of 12
Pollen Not available.
Air Quality Not available.
Flu Activity Not available.
METAR DIAP 021600Z 20011KT 9999 SCT010 BKN025 26/23 Q1011 NOSIG

More Conditions Fewer Conditions

10-Day Weather Forecast

Almanac

Astronomy

Oct. 02, 2014 Rise Set
Actual Time 6:03 AM GMT 6:06 PM GMT
Civil Twilight 5:42 AM GMT 6:27 PM GMT
Nautical Twilight 5:18 AM GMT 6:51 PM GMT
Astronomical Twilight 4:54 AM GMT 7:16 PM GMT
Moon 12:56 PM GMT 12:13 AM GMT
Length of Visible Light 12h 45m
Length of Day
12h 03m
Tomorrow will be 0m 18s shorter.
First Quarter, 60% of the Moon is Illuminated
Today
First Quarter
Oct 8
Full
Oct 15
Last Quarter
Oct 23
New
Oct 30
First Quarter

Today's Extremes

Country Highs Country Lows

Community

WunderPhotos

Upload Photos

1,758,294 photos uploaded!

WunderBlogs® & News

Nearby

Snow Depth

Not available.

Earthquake Activity

City Distance Mag. Time & Date
No recent earthquake activity has been reported nearby.
Minimum magnitude displayed is 2.5.

Coastal Water Temperatures

Place Temperature
No Stations Reporting

Nearby Weather Stations